5C1

Boerne Stage Field Airport

San Antonio, Texas, USA
METAR K5C1 170015Z AUTO 15006KT 7SM CLR 32/13 A3001 RMK AO1
Observed Flight Rules
Jul-17 @ 00:15 UTC (6 minutes ago) Visual Flight Rules
Wind Visibility Clouds
150° at 6 knots 7 miles
  • Clear skies
Temperatures Readings
Current 32°C / 90°F
Dewpoint 13°C / 55°F
Humidity 31%
Altimeter 30.01" Hg
Pressure 1016 hPa
Elevation 423
METAR K5C1 170015Z AUTO 15006KT 7SM CLR 32/13 A3001 RMK AO1
Observed Flight Rules
Jul-17 @ 00:15 UTC
(6 minutes ago)
VFR
Wind Visibility
150° at 6 knots 7 miles
Clouds
  • Clear skies
Temperature Dewpoint
32°C / 90°F 13°C / 55°F
Humidity Altimeter Pressure
31% 30.01" Hg 1016 hPa